»·PEaware :: QXE548 KSEA-KYKM

QXE548 :: KSEA-KYKM

FLIGHT INFORMATION

Flight Status: Arrived
Operator:
Horizon Air
More flights by this operator :: More flights under this callsign
Pilot: Austin B. (27954)
Aircraft: DEHAVILLAND DASH 8 400
(DH8D)
More flights by this aircraft type
Origin: KSEA Seattle-Tacoma Intl
United States
Destination: KYKM Yakima Air Term/Mcallister
United States
More flights between these airports :: More routes between these airports
Route: +SEA7 SEA HUMPP YKM
File this flight plan on PilotEdge
Remarks:
Altitude:
(Current/Filed)
16,000ft
Speed:
(Current/Filed)
300kts
Departed: 08-May-20 09:01 PM
Arrived: 08-May-20 09:30 PM
Distance/Time
Traveled:
90nm/0:29
Distance/Time
To Go:
Arrived

Flight Plot

Page will automatically refresh every two minutes.


Map Options




Map Legend


Flown Route
Filed Route
Departure Airport
Arrival Airport
Navaid (VOR, NDB)
Fix

Horizontal Profiles

Position Reports

Time Latitude Longitude Heading Altitude Ground
Speed
08-May-20 20:28 47.441752 -122.301727 37 440ft 0kts
08-May-20 20:29 47.441752 -122.301727 37 440ft 0kts
08-May-20 20:30 47.441752 -122.301727 37 440ft 0kts
08-May-20 20:31 47.441752 -122.301727 37 440ft 0kts
08-May-20 20:32 47.441752 -122.301727 37 440ft 0kts
08-May-20 20:33 47.441752 -122.301727 37 440ft 0kts
08-May-20 20:34 47.441752 -122.301727 37 440ft 0kts
08-May-20 20:35 47.441752 -122.301727 37 440ft 0kts
08-May-20 20:36 47.441752 -122.301727 37 440ft 0kts
08-May-20 20:37 47.441752 -122.301727 37 440ft 0kts
08-May-20 20:38 47.441752 -122.301727 37 440ft 0kts
08-May-20 20:39 47.441752 -122.301727 37 440ft 0kts
08-May-20 20:40 47.441752 -122.301727 37 440ft 0kts
08-May-20 20:41 47.441752 -122.301727 37 440ft 0kts
08-May-20 20:42 47.441752 -122.301727 37 440ft 0kts
08-May-20 20:44 47.441752 -122.301727 37 440ft 0kts
08-May-20 20:45 47.441752 -122.301727 37 440ft 0kts
08-May-20 20:46 47.441752 -122.301727 37 440ft 0kts
08-May-20 20:47 47.441752 -122.301727 37 440ft 0kts
08-May-20 20:48 47.441534 -122.301972 37 440ft 3kts
08-May-20 20:49 47.441170 -122.302385 37 440ft 0kts
08-May-20 20:50 47.441170 -122.302385 37 440ft 0kts
08-May-20 20:51 47.441170 -122.302385 37 440ft 0kts
08-May-20 20:52 47.440754 -122.301632 185 440ft 10kts
08-May-20 20:53 47.439111 -122.306181 182 440ft 10kts
08-May-20 20:54 47.435817 -122.305928 145 440ft 8kts
08-May-20 20:55 47.431762 -122.306061 222 440ft 8kts
08-May-20 20:56 47.431660 -122.306236 232 440ft 0kts
08-May-20 20:57 47.431497 -122.306921 265 440ft 0kts
08-May-20 20:58 47.431497 -122.306921 265 440ft 0kts
08-May-20 20:59 47.431497 -122.306921 265 440ft 0kts
08-May-20 21:00 47.431488 -122.307143 267 440ft 6kts
08-May-20 21:01 47.449622 -122.308338 3 661ft 146kts
08-May-20 21:01 47.486433 -122.304378 8 2530ft 176kts
08-May-20 21:02 47.529099 -122.336105 268 4724ft 214kts
08-May-20 21:04 47.472739 -122.357869 144 7130ft 234kts
08-May-20 21:04 47.433743 -122.300744 126 9078ft 236kts
08-May-20 21:05 47.395810 -122.221847 120 11376ft 235kts
08-May-20 21:06 47.358466 -122.135864 123 12102ft 271kts
08-May-20 21:07 47.315471 -122.041281 123 12123ft 293kts
08-May-20 21:08 47.274129 -121.951105 123 13789ft 266kts
08-May-20 21:09 47.235103 -121.865825 124 15510ft 259kts
08-May-20 21:10 47.197059 -121.783067 125 17052ft 261kts
08-May-20 21:11 47.155621 -121.692550 125 17190ft 274kts
08-May-20 21:12 47.114436 -121.602991 125 17215ft 276kts
08-May-20 21:13 47.073925 -121.515341 125 17032ft 274kts
08-May-20 21:14 47.032513 -121.425992 125 16093ft 285kts
08-May-20 21:15 46.988200 -121.340817 127 15525ft 278kts
08-May-20 21:16 46.948715 -121.245021 124 14538ft 275kts
08-May-20 21:17 46.906912 -121.155081 125 13561ft 272kts
08-May-20 21:18 46.865283 -121.066936 125 12583ft 267kts
08-May-20 21:19 46.825492 -120.982211 125 11614ft 254kts
08-May-20 21:20 46.787823 -120.902419 124 10564ft 246kts
08-May-20 21:21 46.750482 -120.823788 123 9000ft 222kts
08-May-20 21:22 46.717915 -120.755334 123 7503ft 208kts
08-May-20 21:23 46.686471 -120.681236 114 6039ft 218kts
08-May-20 21:24 46.660275 -120.602489 113 4543ft 216kts
08-May-20 21:25 46.641114 -120.531980 105 4057ft 170kts
08-May-20 21:26 46.617728 -120.478846 158 3850ft 176kts
08-May-20 21:27 46.567593 -120.475080 207 2346ft 160kts
08-May-20 21:28 46.563782 -120.524773 290 1237ft 130kts
08-May-20 21:29 46.570146 -120.548764 9 1102ft 11kts
08-May-20 21:30 46.569187 -120.541812 61 1102ft 5kts
08-May-20 21:31 46.569559 -120.541726 1 1102ft 0kts
08-May-20 21:32 46.569559 -120.541726 1 1102ft 0kts
08-May-20 21:33 46.569559 -120.541726 1 1102ft 0kts
08-May-20 21:34 46.569559 -120.541726 1 1102ft 0kts
08-May-20 21:35 46.569559 -120.541726 1 1102ft 0kts
08-May-20 21:36 46.569559 -120.541726 1 1102ft 0kts
08-May-20 21:37 46.569559 -120.541726 1 1102ft 0kts
08-May-20 21:38 46.569559 -120.541726 1 1102ft 0kts
08-May-20 21:39 46.569559 -120.541726 1 1102ft 0kts
08-May-20 21:40 46.569559 -120.541726 1 1102ft 0kts
08-May-20 21:41 46.569559 -120.541726 1 1102ft 0kts
08-May-20 21:42 46.569559 -120.541726 1 1102ft 0kts
08-May-20 21:43 46.569559 -120.541726 1 1102ft 0kts
08-May-20 21:44 46.569559 -120.541726 1 1102ft 0kts

Navigation Log

Ident Type
Flight plan parsing failed, navigation log unavailable